sensor_id;sensor_type;location;lat;lon;timestamp;pressure;altitude;pressure_sealevel;temperature;humidity
11415;BME280;5763;42.714;23.244;2022-07-21T00:00:04;94854.69;;;21.40;46.94
11415;BME280;5763;42.714;23.244;2022-07-21T00:02:32;94868.84;;;21.42;46.41
11415;BME280;5763;42.714;23.244;2022-07-21T00:04:59;94870.56;;;21.51;46.14
11415;BME280;5763;42.714;23.244;2022-07-21T00:07:26;94867.78;;;21.51;47.30
11415;BME280;5763;42.714;23.244;2022-07-21T00:09:53;94865.00;;;21.51;47.60
11415;BME280;5763;42.714;23.244;2022-07-21T00:12:21;94864.03;;;21.43;47.84
11415;BME280;5763;42.714;23.244;2022-07-21T00:14:47;94859.75;;;21.42;47.93
11415;BME280;5763;42.714;23.244;2022-07-21T00:17:16;94860.25;;;21.40;48.22
11415;BME280;5763;42.714;23.244;2022-07-21T00:19:42;94860.06;;;21.33;48.53
11415;BME280;5763;42.714;23.244;2022-07-21T00:22:09;94861.31;;;21.32;48.73
11415;BME280;5763;42.714;23.244;2022-07-21T00:24:36;94867.16;;;21.34;48.95
11415;BME280;5763;42.714;23.244;2022-07-21T00:27:03;94868.44;;;21.27;49.28
11415;BME280;5763;42.714;23.244;2022-07-21T00:29:30;94862.91;;;21.22;49.84
11415;BME280;5763;42.714;23.244;2022-07-21T00:31:57;94861.91;;;21.19;50.02
11415;BME280;5763;42.714;23.244;2022-07-21T00:34:26;94857.09;;;21.20;50.05
11415;BME280;5763;42.714;23.244;2022-07-21T00:36:53;94862.22;;;21.10;50.43
11415;BME280;5763;42.714;23.244;2022-07-21T00:39:20;94867.50;;;21.14;50.55
11415;BME280;5763;42.714;23.244;2022-07-21T00:41:47;94862.50;;;21.01;49.25
11415;BME280;5763;42.714;23.244;2022-07-21T00:44:25;94859.75;;;20.96;49.70
11415;BME280;5763;42.714;23.244;2022-07-21T00:46:53;94864.25;;;21.04;50.07
11415;BME280;5763;42.714;23.244;2022-07-21T00:49:20;94861.47;;;21.04;50.41
11415;BME280;5763;42.714;23.244;2022-07-21T00:51:49;94862.00;;;20.97;49.80
11415;BME280;5763;42.714;23.244;2022-07-21T00:54:17;94861.53;;;20.88;48.72
11415;BME280;5763;42.714;23.244;2022-07-21T00:56:45;94855.97;;;20.82;49.50
11415;BME280;5763;42.714;23.244;2022-07-21T00:59:12;94859.25;;;20.92;50.08
11415;BME280;5763;42.714;23.244;2022-07-21T01:01:40;94857.25;;;20.87;50.42
11415;BME280;5763;42.714;23.244;2022-07-21T01:04:06;94850.13;;;20.86;49.69
11415;BME280;5763;42.714;23.244;2022-07-21T01:06:33;94854.97;;;20.80;49.03
11415;BME280;5763;42.714;23.244;2022-07-21T01:09:02;94853.25;;;20.77;48.86
11415;BME280;5763;42.714;23.244;2022-07-21T01:11:29;94852.00;;;20.67;49.12
11415;BME280;5763;42.714;23.244;2022-07-21T01:13:57;94853.28;;;20.55;49.19
11415;BME280;5763;42.714;23.244;2022-07-21T01:16:24;94849.53;;;20.47;49.71
11415;BME280;5763;42.714;23.244;2022-07-21T01:18:51;94837.38;;;20.50;50.37
11415;BME280;5763;42.714;23.244;2022-07-21T01:21:31;94844.72;;;20.53;50.51
11415;BME280;5763;42.714;23.244;2022-07-21T01:24:00;94843.72;;;20.45;50.75
11415;BME280;5763;42.714;23.244;2022-07-21T01:26:27;94855.09;;;20.47;50.75
11415;BME280;5763;42.714;23.244;2022-07-21T01:28:55;94843.75;;;20.39;51.05
11415;BME280;5763;42.714;23.244;2022-07-21T01:31:22;94838.94;;;20.45;50.79
11415;BME280;5763;42.714;23.244;2022-07-21T01:33:50;94840.44;;;20.46;50.69
11415;BME280;5763;42.714;23.244;2022-07-21T01:36:17;94836.41;;;20.42;51.13
11415;BME280;5763;42.714;23.244;2022-07-21T01:38:46;94831.88;;;20.39;51.33
11415;BME280;5763;42.714;23.244;2022-07-21T01:41:30;94835.69;;;20.36;51.37
11415;BME280;5763;42.714;23.244;2022-07-21T01:44:00;94837.44;;;20.33;51.42
11415;BME280;5763;42.714;23.244;2022-07-21T01:46:29;94829.88;;;20.28;51.83
11415;BME280;5763;42.714;23.244;2022-07-21T01:48:56;94841.75;;;20.34;51.65
11415;BME280;5763;42.714;23.244;2022-07-21T01:51:24;94836.94;;;20.29;51.84
11415;BME280;5763;42.714;23.244;2022-07-21T01:53:53;94831.66;;;20.26;52.09
11415;BME280;5763;42.714;23.244;2022-07-21T01:56:20;94830.66;;;20.18;52.29
11415;BME280;5763;42.714;23.244;2022-07-21T01:58:49;94833.66;;;20.20;52.38
11415;BME280;5763;42.714;23.244;2022-07-21T02:01:17;94820.53;;;20.15;52.57
11415;BME280;5763;42.714;23.244;2022-07-21T02:03:44;94826.88;;;20.15;52.29
11415;BME280;5763;42.714;23.244;2022-07-21T02:06:12;94831.66;;;20.15;52.44
11415;BME280;5763;42.714;23.244;2022-07-21T02:08:40;94829.16;;;20.06;52.15
11415;BME280;5763;42.714;23.244;2022-07-21T02:11:09;94831.66;;;20.04;52.57
11415;BME280;5763;42.714;23.244;2022-07-21T02:13:36;94835.19;;;20.04;52.49
11415;BME280;5763;42.714;23.244;2022-07-21T02:16:04;94840.25;;;20.06;52.80
11415;BME280;5763;42.714;23.244;2022-07-21T02:18:31;94831.41;;;20.07;53.08
11415;BME280;5763;42.714;23.244;2022-07-21T02:20:58;94838.75;;;20.05;53.32
11415;BME280;5763;42.714;23.244;2022-07-21T02:23:26;94835.47;;;20.01;53.80
11415;BME280;5763;42.714;23.244;2022-07-21T02:25:54;94823.84;;;19.97;53.92
11415;BME280;5763;42.714;23.244;2022-07-21T02:28:24;94824.84;;;19.94;54.13
11415;BME280;5763;42.714;23.244;2022-07-21T02:30:53;94816.81;;;19.85;54.43
11415;BME280;5763;42.714;23.244;2022-07-21T02:33:20;94819.81;;;19.92;54.28
11415;BME280;5763;42.714;23.244;2022-07-21T02:35:47;94829.16;;;19.95;54.18
11415;BME280;5763;42.714;23.244;2022-07-21T02:38:14;94836.72;;;19.89;54.64
11415;BME280;5763;42.714;23.244;2022-07-21T02:40:41;94833.22;;;19.88;54.82
11415;BME280;5763;42.714;23.244;2022-07-21T02:43:08;94822.84;;;19.83;54.26
11415;BME280;5763;42.714;23.244;2022-07-21T02:45:36;94826.66;;;19.75;54.73
11415;BME280;5763;42.714;23.244;2022-07-21T02:48:05;94833.44;;;19.74;54.77
11415;BME280;5763;42.714;23.244;2022-07-21T02:50:34;94832.44;;;19.88;54.21
11415;BME280;5763;42.714;23.244;2022-07-21T02:53:03;94826.88;;;19.88;54.30
11415;BME280;5763;42.714;23.244;2022-07-21T02:55:31;94829.91;;;19.84;54.49
11415;BME280;5763;42.714;23.244;2022-07-21T02:58:05;94829.69;;;19.82;54.62
11415;BME280;5763;42.714;23.244;2022-07-21T03:00:32;94824.63;;;19.81;54.58
11415;BME280;5763;42.714;23.244;2022-07-21T03:03:01;94832.94;;;19.75;55.12
11415;BME280;5763;42.714;23.244;2022-07-21T03:05:27;94834.72;;;19.73;54.98
11415;BME280;5763;42.714;23.244;2022-07-21T03:07:54;94832.19;;;19.69;55.48
11415;BME280;5763;42.714;23.244;2022-07-21T03:10:21;94827.66;;;19.72;55.33
11415;BME280;5763;42.714;23.244;2022-07-21T03:12:49;94831.19;;;19.67;55.56
11415;BME280;5763;42.714;23.244;2022-07-21T03:15:16;94830.41;;;19.66;55.53
11415;BME280;5763;42.714;23.244;2022-07-21T03:17:43;94835.72;;;19.64;55.10
11415;BME280;5763;42.714;23.244;2022-07-21T03:20:11;94833.97;;;19.67;55.51
11415;BME280;5763;42.714;23.244;2022-07-21T03:22:38;94825.88;;;19.69;54.80
11415;BME280;5763;42.714;23.244;2022-07-21T03:25:06;94839.25;;;19.70;54.92
11415;BME280;5763;42.714;23.244;2022-07-21T03:27:33;94832.69;;;19.68;55.11
11415;BME280;5763;42.714;23.244;2022-07-21T03:30:03;94832.44;;;19.71;55.20
11415;BME280;5763;42.714;23.244;2022-07-21T03:32:30;94837.25;;;19.71;55.13
11415;BME280;5763;42.714;23.244;2022-07-21T03:34:57;94843.06;;;19.67;55.16
11415;BME280;5763;42.714;23.244;2022-07-21T03:37:26;94835.47;;;19.68;55.13
11415;BME280;5763;42.714;23.244;2022-07-21T03:39:53;94830.94;;;19.70;55.00
11415;BME280;5763;42.714;23.244;2022-07-21T03:42:20;94830.69;;;19.68;54.99
11415;BME280;5763;42.714;23.244;2022-07-21T03:44:47;94844.81;;;19.76;54.90
11415;BME280;5763;42.714;23.244;2022-07-21T03:47:14;94831.44;;;19.69;55.19
11415;BME280;5763;42.714;23.244;2022-07-21T03:49:41;94840.28;;;19.73;55.29
11415;BME280;5763;42.714;23.244;2022-07-21T03:52:07;94845.59;;;19.71;55.29
11415;BME280;5763;42.714;23.244;2022-07-21T03:54:35;94845.56;;;19.76;55.32
11415;BME280;5763;42.714;23.244;2022-07-21T03:57:02;94858.72;;;19.76;55.37
11415;BME280;5763;42.714;23.244;2022-07-21T03:59:29;94851.88;;;19.77;55.72
11415;BME280;5763;42.714;23.244;2022-07-21T04:01:56;94852.91;;;19.79;55.74
11415;BME280;5763;42.714;23.244;2022-07-21T04:04:22;94848.34;;;19.76;55.96
11415;BME280;5763;42.714;23.244;2022-07-21T04:06:49;94857.69;;;19.84;55.59
11415;BME280;5763;42.714;23.244;2022-07-21T04:09:16;94852.13;;;19.84;55.98
11415;BME280;5763;42.714;23.244;2022-07-21T04:11:45;94852.13;;;19.95;55.84
11415;BME280;5763;42.714;23.244;2022-07-21T04:14:12;94849.09;;;19.93;56.02
11415;BME280;5763;42.714;23.244;2022-07-21T04:16:38;94852.13;;;20.06;55.74
11415;BME280;5763;42.714;23.244;2022-07-21T04:19:05;94848.09;;;20.02;55.85
11415;BME280;5763;42.714;23.244;2022-07-21T04:21:32;94855.41;;;20.05;55.78
11415;BME280;5763;42.714;23.244;2022-07-21T04:23:59;94856.44;;;20.07;55.71
11415;BME280;5763;42.714;23.244;2022-07-21T04:26:26;94856.41;;;20.02;55.48
11415;BME280;5763;42.714;23.244;2022-07-21T04:28:55;94863.50;;;20.03;55.51
11415;BME280;5763;42.714;23.244;2022-07-21T04:31:22;94858.97;;;20.11;55.59
11415;BME280;5763;42.714;23.244;2022-07-21T04:33:48;94850.38;;;20.09;55.56
11415;BME280;5763;42.714;23.244;2022-07-21T04:36:15;94857.69;;;20.17;54.72
11415;BME280;5763;42.714;23.244;2022-07-21T04:38:42;94859.19;;;20.24;55.05
11415;BME280;5763;42.714;23.244;2022-07-21T04:41:09;94855.13;;;20.25;54.74
11415;BME280;5763;42.714;23.244;2022-07-21T04:43:35;94853.41;;;20.22;54.51
11415;BME280;5763;42.714;23.244;2022-07-21T04:46:04;94864.25;;;20.20;54.26
11415;BME280;5763;42.714;23.244;2022-07-21T04:48:30;94863.47;;;20.25;54.06
11415;BME280;5763;42.714;23.244;2022-07-21T04:50:57;94860.19;;;20.32;53.29
11415;BME280;5763;42.714;23.244;2022-07-21T04:53:24;94861.94;;;20.35;53.36
11415;BME280;5763;42.714;23.244;2022-07-21T04:55:50;94867.50;;;20.40;53.61
11415;BME280;5763;42.714;23.244;2022-07-21T04:58:17;94869.00;;;20.47;53.70
11415;BME280;5763;42.714;23.244;2022-07-21T05:00:44;94851.56;;;20.46;53.31
11415;BME280;5763;42.714;23.244;2022-07-21T05:03:12;94865.19;;;20.55;53.16
11415;BME280;5763;42.714;23.244;2022-07-21T05:05:39;94874.53;;;20.58;53.04
11415;BME280;5763;42.714;23.244;2022-07-21T05:08:09;94864.16;;;20.58;52.56
11415;BME280;5763;42.714;23.244;2022-07-21T05:10:36;94867.69;;;20.59;52.75
11415;BME280;5763;42.714;23.244;2022-07-21T05:13:03;94857.34;;;20.54;52.68
11415;BME280;5763;42.714;23.244;2022-07-21T05:15:29;94865.41;;;20.63;52.20
11415;BME280;5763;42.714;23.244;2022-07-21T05:17:56;94863.38;;;20.69;52.19
11415;BME280;5763;42.714;23.244;2022-07-21T05:20:24;94844.44;;;20.62;51.28
11415;BME280;5763;42.714;23.244;2022-07-21T05:22:51;94863.59;;;20.71;51.23
11415;BME280;5763;42.714;23.244;2022-07-21T05:25:18;94869.16;;;20.76;51.07
11415;BME280;5763;42.714;23.244;2022-07-21T05:27:45;94872.66;;;20.82;51.28
11415;BME280;5763;42.714;23.244;2022-07-21T05:30:12;94865.06;;;20.88;51.37
11415;BME280;5763;42.714;23.244;2022-07-21T05:32:39;94864.31;;;20.88;51.05
11415;BME280;5763;42.714;23.244;2022-07-21T05:35:06;94872.63;;;20.99;51.00
11415;BME280;5763;42.714;23.244;2022-07-21T05:37:38;94873.38;;;20.99;51.06
11415;BME280;5763;42.714;23.244;2022-07-21T05:40:07;94872.84;;;21.06;51.15
11415;BME280;5763;42.714;23.244;2022-07-21T05:42:36;94873.09;;;21.08;50.96
11415;BME280;5763;42.714;23.244;2022-07-21T05:45:03;94872.81;;;21.12;50.94
11415;BME280;5763;42.714;23.244;2022-07-21T05:47:30;94873.03;;;21.19;51.35
11415;BME280;5763;42.714;23.244;2022-07-21T05:49:57;94866.44;;;21.22;50.85
11415;BME280;5763;42.714;23.244;2022-07-21T05:52:24;94867.22;;;21.23;50.67
11415;BME280;5763;42.714;23.244;2022-07-21T05:54:52;94843.19;;;21.14;49.89
11415;BME280;5763;42.714;23.244;2022-07-21T05:57:19;94865.88;;;21.35;49.54
11415;BME280;5763;42.714;23.244;2022-07-21T05:59:46;94869.09;;;21.44;49.21
11415;BME280;5763;42.714;23.244;2022-07-21T06:02:13;94871.59;;;21.48;49.27
11415;BME280;5763;42.714;23.244;2022-07-21T06:04:40;94872.06;;;21.52;49.48
11415;BME280;5763;42.714;23.244;2022-07-21T06:07:07;94872.06;;;21.57;49.62
11415;BME280;5763;42.714;23.244;2022-07-21T06:09:34;94867.97;;;21.64;50.12
11415;BME280;5763;42.714;23.244;2022-07-21T06:12:02;94866.44;;;21.63;50.08
11415;BME280;5763;42.714;23.244;2022-07-21T06:14:29;94859.28;;;21.73;49.21
11415;BME280;5763;42.714;23.244;2022-07-21T06:16:56;94859.78;;;21.77;49.30
11415;BME280;5763;42.714;23.244;2022-07-21T06:19:23;94864.22;;;21.91;49.07
11415;BME280;5763;42.714;23.244;2022-07-21T06:21:49;94860.38;;;21.94;49.26
11415;BME280;5763;42.714;23.244;2022-07-21T06:24:16;94863.91;;;22.00;49.20
11415;BME280;5763;42.714;23.244;2022-07-21T06:26:45;94861.56;;;22.04;49.54
11415;BME280;5763;42.714;23.244;2022-07-21T06:29:13;94856.66;;;22.15;49.45
11415;BME280;5763;42.714;23.244;2022-07-21T06:31:40;94849.75;;;22.22;49.37
11415;BME280;5763;42.714;23.244;2022-07-21T06:34:06;94850.16;;;22.31;49.41
11415;BME280;5763;42.714;23.244;2022-07-21T06:36:33;94845.56;;;22.34;49.54
11415;BME280;5763;42.714;23.244;2022-07-21T06:39:00;94862.47;;;22.47;49.52
11415;BME280;5763;42.714;23.244;2022-07-21T06:41:27;94848.44;;;22.52;49.47
11415;BME280;5763;42.714;23.244;2022-07-21T06:43:53;94854.66;;;22.64;48.42
11415;BME280;5763;42.714;23.244;2022-07-21T06:46:22;94856.84;;;22.71;48.36
11415;BME280;5763;42.714;23.244;2022-07-21T06:48:50;94855.75;;;22.79;48.32
11415;BME280;5763;42.714;23.244;2022-07-21T06:51:16;94853.34;;;22.89;48.26
11415;BME280;5763;42.714;23.244;2022-07-21T06:53:43;94849.22;;;22.95;48.10
11415;BME280;5763;42.714;23.244;2022-07-21T06:56:10;94855.84;;;23.11;48.33
11415;BME280;5763;42.714;23.244;2022-07-21T06:58:37;94850.16;;;23.22;48.77
11415;BME280;5763;42.714;23.244;2022-07-21T07:01:03;94848.34;;;23.43;47.35
11415;BME280;5763;42.714;23.244;2022-07-21T07:03:32;94845.25;;;23.46;47.65
11415;BME280;5763;42.714;23.244;2022-07-21T07:05:59;94854.31;;;23.52;47.32
11415;BME280;5763;42.714;23.244;2022-07-21T07:08:26;94846.53;;;23.64;47.23
11415;BME280;5763;42.714;23.244;2022-07-21T07:10:52;94844.00;;;23.79;47.02
11415;BME280;5763;42.714;23.244;2022-07-21T07:13:19;94841.72;;;23.77;46.38
11415;BME280;5763;42.714;23.244;2022-07-21T07:15:46;94846.66;;;23.90;46.66
11415;BME280;5763;42.714;23.244;2022-07-21T07:18:13;94831.50;;;23.98;47.09
11415;BME280;5763;42.714;23.244;2022-07-21T07:20:42;94826.22;;;23.95;45.69
11415;BME280;5763;42.714;23.244;2022-07-21T07:23:09;94836.81;;;24.15;45.95
11415;BME280;5763;42.714;23.244;2022-07-21T07:25:36;94833.59;;;24.24;45.39
11415;BME280;5763;42.714;23.244;2022-07-21T07:28:04;94831.66;;;24.32;45.58
11415;BME280;5763;42.714;23.244;2022-07-21T07:30:32;94834.91;;;24.36;45.67
11415;BME280;5763;42.714;23.244;2022-07-21T07:32:59;94830.28;;;24.51;45.31
11415;BME280;5763;42.714;23.244;2022-07-21T07:35:26;94835.59;;;24.68;45.22
11415;BME280;5763;42.714;23.244;2022-07-21T07:37:54;94825.91;;;24.82;45.07
11415;BME280;5763;42.714;23.244;2022-07-21T07:40:22;94822.97;;;24.87;45.20
11415;BME280;5763;42.714;23.244;2022-07-21T07:42:49;94822.00;;;24.98;44.80
11415;BME280;5763;42.714;23.244;2022-07-21T07:45:17;94819.94;;;25.11;44.64
11415;BME280;5763;42.714;23.244;2022-07-21T07:47:44;94811.50;;;25.24;43.82
11415;BME280;5763;42.714;23.244;2022-07-21T07:50:12;94821.13;;;25.29;43.95
11415;BME280;5763;42.714;23.244;2022-07-21T07:52:41;94813.97;;;25.41;43.18
11415;BME280;5763;42.714;23.244;2022-07-21T07:55:11;94805.72;;;25.56;43.04
11415;BME280;5763;42.714;23.244;2022-07-21T07:57:41;94807.50;;;25.66;41.23
11415;BME280;5763;42.714;23.244;2022-07-21T08:00:11;94806.13;;;25.80;42.00
11415;BME280;5763;42.714;23.244;2022-07-21T08:02:39;94799.75;;;25.93;41.50
11415;BME280;5763;42.714;23.244;2022-07-21T08:05:08;94797.75;;;26.01;42.18
11415;BME280;5763;42.714;23.244;2022-07-21T08:07:36;94787.75;;;26.13;42.29
11415;BME280;5763;42.714;23.244;2022-07-21T08:10:05;94797.41;;;26.25;40.56
11415;BME280;5763;42.714;23.244;2022-07-21T08:12:35;94790.91;;;26.30;39.54
11415;BME280;5763;42.714;23.244;2022-07-21T08:15:05;94789.69;;;26.46;40.11
11415;BME280;5763;42.714;23.244;2022-07-21T08:17:33;94798.63;;;26.65;40.24
11415;BME280;5763;42.714;23.244;2022-07-21T08:20:02;94790.59;;;26.69;39.48
11415;BME280;5763;42.714;23.244;2022-07-21T08:22:30;94797.03;;;26.77;39.61
11415;BME280;5763;42.714;23.244;2022-07-21T08:24:58;94791.81;;;26.81;39.21
11415;BME280;5763;42.714;23.244;2022-07-21T08:27:26;94789.28;;;26.98;39.38
11415;BME280;5763;42.714;23.244;2022-07-21T08:29:57;94790.25;;;27.08;38.86
11415;BME280;5763;42.714;23.244;2022-07-21T08:32:25;94788.44;;;27.18;38.93
11415;BME280;5763;42.714;23.244;2022-07-21T08:34:53;94789.53;;;27.15;36.66
11415;BME280;5763;42.714;23.244;2022-07-21T08:37:21;94787.53;;;27.23;36.59
11415;BME280;5763;42.714;23.244;2022-07-21T08:39:54;94791.50;;;27.35;37.07
11415;BME280;5763;42.714;23.244;2022-07-21T08:42:22;94774.84;;;27.52;37.02
11415;BME280;5763;42.714;23.244;2022-07-21T08:44:50;94777.69;;;27.59;36.64
11415;BME280;5763;42.714;23.244;2022-07-21T08:47:21;94773.38;;;27.66;36.63
11415;BME280;5763;42.714;23.244;2022-07-21T08:49:49;94775.50;;;27.80;37.86
11415;BME280;5763;42.714;23.244;2022-07-21T08:52:17;94777.97;;;27.91;36.88
11415;BME280;5763;42.714;23.244;2022-07-21T08:54:45;94770.63;;;27.96;36.04
11415;BME280;5763;42.714;23.244;2022-07-21T08:57:13;94774.97;;;28.12;34.66
11415;BME280;5763;42.714;23.244;2022-07-21T08:59:41;94769.31;;;28.19;35.87
11415;BME280;5763;42.714;23.244;2022-07-21T09:02:29;94756.00;;;28.35;34.70
11415;BME280;5763;42.714;23.244;2022-07-21T09:04:58;94755.09;;;28.40;35.43
11415;BME280;5763;42.714;23.244;2022-07-21T09:07:26;94755.44;;;28.44;35.42
11415;BME280;5763;42.714;23.244;2022-07-21T09:09:56;94749.97;;;28.61;35.50
11415;BME280;5763;42.714;23.244;2022-07-21T09:12:24;94758.38;;;28.76;34.76
11415;BME280;5763;42.714;23.244;2022-07-21T09:15:12;94753.09;;;28.80;32.91
11415;BME280;5763;42.714;23.244;2022-07-21T09:17:42;94752.50;;;28.96;33.73
11415;BME280;5763;42.714;23.244;2022-07-21T09:20:21;94743.63;;;29.07;34.12
11415;BME280;5763;42.714;23.244;2022-07-21T09:23:04;94738.72;;;29.15;34.18
11415;BME280;5763;42.714;23.244;2022-07-21T09:25:34;94746.59;;;29.24;32.64
11415;BME280;5763;42.714;23.244;2022-07-21T09:28:14;94744.63;;;29.42;33.67
11415;BME280;5763;42.714;23.244;2022-07-21T09:30:51;94739.81;;;29.59;32.59
11415;BME280;5763;42.714;23.244;2022-07-21T09:33:23;94744.28;;;29.70;31.28
11415;BME280;5763;42.714;23.244;2022-07-21T09:35:55;94732.78;;;29.75;30.90
11415;BME280;5763;42.714;23.244;2022-07-21T09:38:24;94740.13;;;29.95;30.75
11415;BME280;5763;42.714;23.244;2022-07-21T09:40:52;94733.34;;;29.98;29.69
11415;BME280;5763;42.714;23.244;2022-07-21T09:43:33;94730.03;;;30.09;30.74
11415;BME280;5763;42.714;23.244;2022-07-21T09:46:03;94742.41;;;30.21;30.38
11415;BME280;5763;42.714;23.244;2022-07-21T09:48:37;94738.13;;;30.37;30.64
11415;BME280;5763;42.714;23.244;2022-07-21T09:51:25;94741.66;;;30.38;27.65
11415;BME280;5763;42.714;23.244;2022-07-21T09:53:56;94730.03;;;30.34;27.38
11415;BME280;5763;42.714;23.244;2022-07-21T09:56:31;94737.50;;;30.39;27.46
11415;BME280;5763;42.714;23.244;2022-07-21T09:59:00;94739.97;;;30.59;28.29
11415;BME280;5763;42.714;23.244;2022-07-21T10:01:29;94735.59;;;30.66;28.42
11415;BME280;5763;42.714;23.244;2022-07-21T10:04:00;94733.91;;;30.80;27.97
11415;BME280;5763;42.714;23.244;2022-07-21T10:06:29;94720.44;;;30.88;28.75
11415;BME280;5763;42.714;23.244;2022-07-21T10:09:00;94725.16;;;31.02;27.73
11415;BME280;5763;42.714;23.244;2022-07-21T10:11:28;94715.19;;;31.01;27.51
11415;BME280;5763;42.714;23.244;2022-07-21T10:13:56;94720.19;;;31.10;27.58
11415;BME280;5763;42.714;23.244;2022-07-21T10:16:25;94723.00;;;31.27;28.52
11415;BME280;5763;42.714;23.244;2022-07-21T10:19:00;94719.88;;;31.50;29.39
11415;BME280;5763;42.714;23.244;2022-07-21T10:21:39;94715.66;;;31.68;28.61
11415;BME280;5763;42.714;23.244;2022-07-21T10:24:12;94717.25;;;31.88;27.89
11415;BME280;5763;42.714;23.244;2022-07-21T10:26:59;94715.38;;;32.00;26.87
11415;BME280;5763;42.714;23.244;2022-07-21T10:29:49;94715.25;;;32.17;27.45
11415;BME280;5763;42.714;23.244;2022-07-21T10:32:19;94711.22;;;32.10;26.41
11415;BME280;5763;42.714;23.244;2022-07-21T10:34:49;94715.72;;;32.23;26.34
11415;BME280;5763;42.714;23.244;2022-07-21T10:37:48;94713.41;;;32.29;25.62
11415;BME280;5763;42.714;23.244;2022-07-21T10:40:35;94706.72;;;32.43;25.84
11415;BME280;5763;42.714;23.244;2022-07-21T10:43:37;94705.53;;;32.56;25.58
11415;BME280;5763;42.714;23.244;2022-07-21T10:46:36;94699.13;;;32.74;25.76
11415;BME280;5763;42.714;23.244;2022-07-21T10:49:08;94705.28;;;32.80;25.67
11415;BME280;5763;42.714;23.244;2022-07-21T10:51:38;94704.69;;;32.91;25.38
11415;BME280;5763;42.714;23.244;2022-07-21T10:54:16;94693.34;;;33.01;25.13
11415;BME280;5763;42.714;23.244;2022-07-21T10:56:44;94689.31;;;33.04;25.32
11415;BME280;5763;42.714;23.244;2022-07-21T10:59:12;94691.81;;;33.19;24.83
11415;BME280;5763;42.714;23.244;2022-07-21T11:01:40;94679.41;;;33.24;24.31
11415;BME280;5763;42.714;23.244;2022-07-21T11:04:09;94679.72;;;33.37;24.31
11415;BME280;5763;42.714;23.244;2022-07-21T11:06:41;94669.50;;;33.53;23.84
11415;BME280;5763;42.714;23.244;2022-07-21T11:09:11;94666.19;;;33.66;23.49
11415;BME280;5763;42.714;23.244;2022-07-21T11:11:56;94663.03;;;33.81;22.99
11415;BME280;5763;42.714;23.244;2022-07-21T11:14:36;94661.19;;;33.86;23.23
11415;BME280;5763;42.714;23.244;2022-07-21T11:17:04;94678.63;;;34.01;24.19
11415;BME280;5763;42.714;23.244;2022-07-21T11:19:35;94672.00;;;34.08;25.18
11415;BME280;5763;42.714;23.244;2022-07-21T11:22:08;94673.28;;;34.17;24.77
11415;BME280;5763;42.714;23.244;2022-07-21T11:24:36;94665.47;;;34.27;24.92
11415;BME280;5763;42.714;23.244;2022-07-21T11:27:05;94661.84;;;34.36;22.51
11415;BME280;5763;42.714;23.244;2022-07-21T11:29:36;94668.09;;;34.44;22.65
11415;BME280;5763;42.714;23.244;2022-07-21T11:32:05;94675.38;;;34.47;22.13
11415;BME280;5763;42.714;23.244;2022-07-21T11:34:44;94668.28;;;34.57;22.83
11415;BME280;5763;42.714;23.244;2022-07-21T11:37:16;94666.31;;;34.60;22.48
11415;BME280;5763;42.714;23.244;2022-07-21T11:39:44;94661.72;;;34.55;23.22
11415;BME280;5763;42.714;23.244;2022-07-21T11:42:14;94660.25;;;34.54;23.04
11415;BME280;5763;42.714;23.244;2022-07-21T11:44:43;94661.31;;;34.49;22.65
11415;BME280;5763;42.714;23.244;2022-07-21T11:47:13;94666.19;;;34.58;22.46
11415;BME280;5763;42.714;23.244;2022-07-21T11:49:43;94655.75;;;34.51;22.09
11415;BME280;5763;42.714;23.244;2022-07-21T11:52:14;94653.59;;;34.61;22.50
11415;BME280;5763;42.714;23.244;2022-07-21T11:54:45;94653.66;;;34.72;22.17
11415;BME280;5763;42.714;23.244;2022-07-21T11:57:15;94650.16;;;34.62;22.42
11415;BME280;5763;42.714;23.244;2022-07-21T11:59:43;94645.53;;;34.78;23.13
11415;BME280;5763;42.714;23.244;2022-07-21T12:02:13;94645.06;;;34.82;23.76
11415;BME280;5763;42.714;23.244;2022-07-21T12:04:44;94652.25;;;34.83;24.37
11415;BME280;5763;42.714;23.244;2022-07-21T12:07:16;94644.94;;;34.80;23.33
11415;BME280;5763;42.714;23.244;2022-07-21T12:09:47;94648.31;;;34.88;22.97
11415;BME280;5763;42.714;23.244;2022-07-21T12:12:31;94637.47;;;34.96;22.22
11415;BME280;5763;42.714;23.244;2022-07-21T12:15:10;94648.03;;;34.84;21.93
11415;BME280;5763;42.714;23.244;2022-07-21T12:17:41;94638.69;;;34.93;22.88
11415;BME280;5763;42.714;23.244;2022-07-21T12:20:09;94641.53;;;34.93;22.49
11415;BME280;5763;42.714;23.244;2022-07-21T12:22:42;94631.34;;;34.69;22.38
11415;BME280;5763;42.714;23.244;2022-07-21T12:25:13;94635.09;;;34.92;22.72
11415;BME280;5763;42.714;23.244;2022-07-21T12:27:43;94628.66;;;34.92;22.34
11415;BME280;5763;42.714;23.244;2022-07-21T12:30:31;94622.75;;;34.99;23.40
11415;BME280;5763;42.714;23.244;2022-07-21T12:33:07;94630.13;;;34.93;23.93
11415;BME280;5763;42.714;23.244;2022-07-21T12:35:43;94616.28;;;34.99;23.45
11415;BME280;5763;42.714;23.244;2022-07-21T12:38:15;94613.97;;;35.07;23.74
11415;BME280;5763;42.714;23.244;2022-07-21T12:40:47;94627.63;;;35.20;23.97
11415;BME280;5763;42.714;23.244;2022-07-21T12:43:18;94630.41;;;35.29;23.94
11415;BME280;5763;42.714;23.244;2022-07-21T12:45:53;94628.19;;;35.28;22.89
11415;BME280;5763;42.714;23.244;2022-07-21T12:48:24;94623.34;;;35.30;22.64
11415;BME280;5763;42.714;23.244;2022-07-21T12:51:00;94622.59;;;35.30;23.50
11415;BME280;5763;42.714;23.244;2022-07-21T12:53:32;94611.47;;;35.34;22.33
11415;BME280;5763;42.714;23.244;2022-07-21T12:56:01;94606.19;;;35.51;22.68
11415;BME280;5763;42.714;23.244;2022-07-21T12:58:29;94608.63;;;35.34;21.61
11415;BME280;5763;42.714;23.244;2022-07-21T13:00:58;94608.06;;;35.14;22.09
11415;BME280;5763;42.714;23.244;2022-07-21T13:03:28;94599.72;;;34.95;21.95
11415;BME280;5763;42.714;23.244;2022-07-21T13:05:57;94598.34;;;34.96;22.17
11415;BME280;5763;42.714;23.244;2022-07-21T13:08:26;94589.84;;;35.08;22.39
11415;BME280;5763;42.714;23.244;2022-07-21T13:10:56;94588.63;;;35.11;22.71